Time;durP1;ratioP1;P1;durP2;ratioP2;P2;SDS_P1;SDS_P2;PMS_P1;PMS_P2;Temp;Humidity;BMP_temperature;BMP_pressure;BME280_temperature;BME280_humidity;BME280_pressure;Samples;Min_cycle;Max_cycle;Signal;HPM_P1;HPM_P2
2024/02/21 00:03:42;;;;;;;12.98;4.72;;;20.10;40.60;;;;;;8349003;28;20030;-54
2024/02/21 00:07:43;;;;;;;12.27;4.45;;;20.10;40.50;;;;;;8333790;28;20034;-50
2024/02/21 00:11:44;;;;;;;13.50;5.13;;;20.10;40.40;;;;;;8333287;28;20068;-53
2024/02/21 00:15:44;;;;;;;11.10;4.70;;;20.00;40.30;;;;;;8333052;28;20391;-53
2024/02/21 00:19:45;;;;;;;10.70;4.13;;;20.10;40.90;;;;;;8333484;28;20029;-53
2024/02/21 00:23:46;;;;;;;6.80;3.97;;;20.10;40.30;;;;;;8333179;28;20033;-52
2024/02/21 00:27:46;;;;;;;7.85;4.13;;;20.10;40.30;;;;;;8349326;28;20029;-53
2024/02/21 00:31:49;;;;;;;10.77;5.18;;;20.00;42.00;;;;;;8366293;28;20029;-53
2024/02/21 00:35:49;;;;;;;9.98;4.60;;;19.80;42.30;;;;;;8365456;28;20471;-53
2024/02/21 00:39:50;;;;;;;9.40;4.43;;;19.90;41.50;;;;;;8365388;28;20029;-50
2024/02/21 00:43:51;;;;;;;32.80;9.02;;;19.90;41.10;;;;;;8365224;28;20334;-51
2024/02/21 00:47:52;;;;;;;111.53;23.40;;;20.00;41.10;;;;;;8365623;28;20440;-49
2024/02/21 00:51:52;;;;;;;266.75;50.95;;;19.90;40.80;;;;;;8365110;28;20095;-54
2024/02/21 00:55:54;;;;;;;188.43;41.83;;;19.90;40.90;;;;;;8364741;28;20037;-52
2024/02/21 00:59:54;;;;;;;158.25;36.97;;;19.70;40.50;;;;;;8364916;28;20128;-50
2024/02/21 01:03:55;;;;;;;144.45;31.65;;;19.80;40.20;;;;;;8364822;28;20032;-51
2024/02/21 01:07:56;;;;;;;120.32;29.17;;;19.80;39.90;;;;;;8364616;28;20475;-56
2024/02/21 01:11:56;;;;;;;101.93;25.90;;;19.70;39.50;;;;;;8358351;28;20056;-55
2024/02/21 01:15:57;;;;;;;80.10;17.80;;;19.70;39.70;;;;;;8328005;28;20047;-51
2024/02/21 01:19:58;;;;;;;55.53;13.93;;;19.40;39.80;;;;;;8328244;28;20052;-55
2024/02/21 01:23:58;;;;;;;49.40;12.98;;;19.10;40.40;;;;;;8328222;28;20116;-56
2024/02/21 01:27:59;;;;;;;55.65;16.30;;;19.20;39.60;;;;;;8347559;28;20086;-55
2024/02/21 01:32:00;;;;;;;46.83;13.55;;;19.40;39.20;;;;;;8361995;28;20398;-57
2024/02/21 01:36:06;;;;;;;61.95;13.90;;;19.50;39.00;;;;;;8361022;28;20032;-57
2024/02/21 01:40:07;;;;;;;48.50;13.80;;;19.50;38.90;;;;;;8361539;28;20029;-56
2024/02/21 01:44:08;;;;;;;;;;;19.50;38.80;;;;;;8361805;28;20725;-57
2024/02/21 01:48:09;;;;;;;52.23;13.60;;;19.60;38.80;;;;;;8361446;28;20612;-56
2024/02/21 01:52:13;;;;;;;44.55;12.57;;;19.60;38.80;;;;;;8361182;28;20033;-56
2024/02/21 01:56:15;;;;;;;54.40;13.88;;;19.60;38.80;;;;;;8360867;28;20045;-55
2024/02/21 02:00:17;;;;;;;48.83;14.15;;;19.60;38.80;;;;;;8360824;28;20483;-54
2024/02/21 02:04:19;;;;;;;45.10;12.63;;;19.60;39.40;;;;;;8360617;28;20033;-56
2024/02/21 02:08:22;;;;;;;42.35;12.52;;;19.50;40.40;;;;;;8360871;28;20029;-56
2024/02/21 02:12:24;;;;;;;44.97;13.00;;;19.30;40.50;;;;;;8360607;28;20041;-57
2024/02/21 02:16:25;;;;;;;39.70;13.05;;;19.40;40.10;;;;;;8360516;28;20410;-57
2024/02/21 02:20:27;;;;;;;38.92;12.32;;;19.50;39.80;;;;;;8360909;28;20128;-56
2024/02/21 02:24:27;;;;;;;49.97;13.07;;;19.50;39.60;;;;;;8360408;28;20033;-57
2024/02/21 02:28:28;;;;;;;45.25;12.73;;;19.50;39.50;;;;;;8360345;28;20407;-56
2024/02/21 02:32:29;;;;;;;45.95;13.25;;;19.50;39.40;;;;;;8360371;28;20398;-56
2024/02/21 02:36:33;;;;;;;44.65;12.85;;;19.50;39.30;;;;;;8359983;28;20033;-56
2024/02/21 02:40:34;;;;;;;37.53;11.93;;;19.50;39.30;;;;;;8360064;28;20029;-56
2024/02/21 02:44:35;;;;;;;39.97;12.73;;;19.50;39.20;;;;;;8360074;28;20605;-57
2024/02/21 02:48:37;;;;;;;47.00;11.77;;;19.50;39.20;;;;;;8359093;28;20103;-55
2024/02/21 02:52:38;;;;;;;38.28;12.57;;;19.50;40.00;;;;;;8359663;28;20104;-55
2024/02/21 02:56:38;;;;;;;34.13;12.13;;;19.30;40.80;;;;;;8359446;28;20032;-55
2024/02/21 03:00:39;;;;;;;35.15;12.63;;;19.30;40.70;;;;;;8359575;28;20037;-55
2024/02/21 03:04:40;;;;;;;36.65;10.65;;;19.30;40.20;;;;;;8359616;28;20033;-54
2024/02/21 03:08:40;;;;;;;43.55;11.93;;;19.40;40.00;;;;;;8359407;28;20418;-56
2024/02/21 03:12:42;;;;;;;34.33;11.33;;;19.40;39.80;;;;;;8359256;28;20049;-56
2024/02/21 03:16:42;;;;;;;37.83;11.85;;;19.50;39.70;;;;;;8359233;28;20291;-56
2024/02/21 03:20:43;;;;;;;35.90;10.57;;;19.40;39.60;;;;;;8359271;28;20025;-56
2024/02/21 03:24:44;;;;;;;37.73;10.57;;;19.40;39.50;;;;;;8359303;28;20037;-57
2024/02/21 03:28:48;;;;;;;33.28;11.40;;;19.50;39.50;;;;;;8359390;28;20287;-52
2024/02/21 03:32:49;;;;;;;35.53;11.18;;;19.50;39.50;;;;;;8357827;28;20029;-54
2024/02/21 03:36:49;;;;;;;36.53;11.90;;;19.50;39.40;;;;;;8359211;28;20056;-52
2024/02/21 03:40:50;;;;;;;31.67;10.40;;;19.40;40.40;;;;;;8358893;28;20280;-53
2024/02/21 03:44:51;;;;;;;33.95;11.55;;;19.20;41.00;;;;;;8358901;28;20032;-54
2024/02/21 03:48:51;;;;;;;36.05;9.93;;;19.20;40.80;;;;;;8358938;28;20449;-54
2024/02/21 03:52:55;;;;;;;30.88;11.38;;;19.20;40.40;;;;;;8357284;28;20041;-54
2024/02/21 03:56:55;;;;;;;30.65;9.68;;;19.30;40.10;;;;;;8358815;28;20087;-54
2024/02/21 04:00:57;;;;;;;29.10;10.97;;;19.30;40.00;;;;;;8361977;28;20474;-53
2024/02/21 04:04:57;;;;;;;29.92;10.00;;;19.40;39.80;;;;;;8364682;28;20283;-53
2024/02/21 04:08:58;;;;;;;29.37;9.07;;;19.40;39.60;;;;;;8364363;28;20041;-54
2024/02/21 04:12:59;;;;;;;33.15;10.95;;;19.40;39.60;;;;;;8364376;28;20306;-53
2024/02/21 04:17:00;;;;;;;30.23;9.63;;;19.40;39.50;;;;;;8363979;28;20071;-53
2024/02/21 04:21:00;;;;;;;29.75;10.35;;;19.40;39.40;;;;;;8364186;28;20037;-53
2024/02/21 04:25:01;;;;;;;25.48;9.48;;;19.40;39.40;;;;;;8363775;28;20115;-53
2024/02/21 04:29:02;;;;;;;33.90;11.63;;;19.30;40.30;;;;;;8363672;28;20112;-53
2024/02/21 04:33:03;;;;;;;26.38;9.73;;;19.20;41.00;;;;;;8363556;28;20478;-53
2024/02/21 04:37:04;;;;;;;25.77;10.02;;;19.20;40.70;;;;;;8363568;28;20040;-55
2024/02/21 04:41:04;;;;;;;26.52;10.20;;;19.30;40.30;;;;;;8364303;28;20051;-57
2024/02/21 04:45:06;;;;;;;28.23;9.07;;;19.30;40.10;;;;;;8363229;28;20044;-55
2024/02/21 04:49:25;;;;;;;20.10;8.32;;;19.30;39.80;;;;;;8362904;28;20530;-54
2024/02/21 04:53:25;;;;;;;26.65;8.93;;;19.40;39.70;;;;;;8362776;28;20039;-57
2024/02/21 04:57:26;;;;;;;23.00;9.13;;;19.40;39.60;;;;;;8363014;28;20029;-55
2024/02/21 05:01:28;;;;;;;24.53;8.57;;;19.40;39.60;;;;;;8362845;28;20064;-57
2024/02/21 05:05:29;;;;;;;25.02;9.40;;;19.40;39.50;;;;;;8362726;28;20295;-56
2024/02/21 05:09:30;;;;;;;20.08;8.70;;;19.40;39.40;;;;;;8362485;28;20090;-55
2024/02/21 05:13:30;;;;;;;25.40;8.88;;;19.40;39.40;;;;;;8361128;28;20184;-55
2024/02/21 05:17:31;;;;;;;22.40;9.27;;;19.30;40.50;;;;;;8362299;28;20029;-56
2024/02/21 05:21:32;;;;;;;23.27;8.65;;;19.20;41.00;;;;;;8362224;28;20036;-55
2024/02/21 05:25:32;;;;;;;25.38;8.45;;;19.30;40.40;;;;;;8361933;28;20037;-56
2024/02/21 05:29:34;;;;;;;19.25;8.30;;;19.40;40.00;;;;;;8361919;28;20393;-56
2024/02/21 05:33:34;;;;;;;;;;;19.50;39.70;;;;;;8361942;28;20048;-57
2024/02/21 05:37:35;;;;;;;18.47;7.33;;;19.50;40.00;;;;;;8362010;28;19944;-55
2024/02/21 05:41:36;;;;;;;22.30;8.20;;;19.50;39.30;;;;;;8360120;28;20128;-56
2024/02/21 05:45:37;;;;;;;20.40;7.63;;;19.60;39.30;;;;;;8361888;28;20291;-56
2024/02/21 05:49:38;;;;;;;25.05;7.70;;;19.60;39.10;;;;;;8361512;28;20111;-55
2024/02/21 05:53:40;;;;;;;24.42;8.32;;;19.60;39.00;;;;;;8361010;28;20090;-55
2024/02/21 05:57:41;;;;;;;19.10;7.32;;;19.60;39.00;;;;;;8361051;28;20044;-55
2024/02/21 06:01:42;;;;;;;19.77;7.80;;;19.60;38.90;;;;;;8360958;28;20131;-55
2024/02/21 06:05:42;;;;;;;20.52;7.63;;;19.50;40.10;;;;;;8360856;28;20029;-55
2024/02/21 06:09:44;;;;;;;16.02;6.88;;;19.40;40.70;;;;;;8360700;28;20062;-55
2024/02/21 06:13:44;;;;;;;;;;;19.40;40.00;;;;;;8360955;28;20045;-55
2024/02/21 06:17:48;;;;;;;22.07;8.43;;;19.50;39.70;;;;;;8360476;28;19947;-56
2024/02/21 06:21:49;;;;;;;21.63;7.32;;;19.50;39.50;;;;;;8360341;28;20025;-55
2024/02/21 06:25:49;;;;;;;20.42;8.10;;;19.50;39.40;;;;;;8360172;28;20493;-55
2024/02/21 06:29:50;;;;;;;17.15;7.03;;;19.50;39.30;;;;;;8360188;28;20029;-55
2024/02/21 06:33:51;;;;;;;14.90;7.40;;;19.50;39.20;;;;;;8360158;28;20217;-55
2024/02/21 06:37:52;;;;;;;18.83;7.68;;;19.50;39.10;;;;;;8360521;28;20104;-55
2024/02/21 06:41:53;;;;;;;15.30;8.00;;;19.50;39.00;;;;;;8359994;28;20036;-55
2024/02/21 06:45:55;;;;;;;17.33;6.55;;;19.60;39.00;;;;;;8359907;28;20041;-56
2024/02/21 06:49:55;;;;;;;;;;;19.60;38.90;;;;;;8360521;28;20036;-54
2024/02/21 06:53:56;;;;;;;20.50;7.63;;;19.50;40.20;;;;;;8359466;28;19913;-56
2024/02/21 06:57:57;;;;;;;20.80;7.95;;;19.40;40.60;;;;;;8359853;28;20029;-56
2024/02/21 07:01:57;;;;;;;19.88;7.53;;;19.40;39.90;;;;;;8359556;28;20036;-54
2024/02/21 07:05:58;;;;;;;17.38;7.05;;;19.50;39.60;;;;;;8359406;28;20037;-56
2024/02/21 07:10:00;;;;;;;14.82;6.15;;;19.50;39.40;;;;;;8359701;28;20498;-55
2024/02/21 07:14:00;;;;;;;17.40;6.07;;;19.50;39.20;;;;;;8359236;28;20498;-55
2024/02/21 07:18:01;;;;;;;17.83;6.40;;;19.60;39.10;;;;;;8357937;28;20438;-55
2024/02/21 07:22:02;;;;;;;16.42;6.53;;;19.60;39.00;;;;;;8359605;28;20037;-55
2024/02/21 07:26:04;;;;;;;17.50;6.68;;;19.60;39.00;;;;;;8359119;28;20459;-55
2024/02/21 07:30:05;;;;;;;14.23;6.47;;;19.60;38.90;;;;;;8357777;28;20037;-55
2024/02/21 07:34:06;;;;;;;18.52;6.10;;;19.60;38.80;;;;;;8359569;28;20044;-55
2024/02/21 07:38:08;;;;;;;15.57;7.18;;;19.60;38.90;;;;;;8365631;28;20033;-56
2024/02/21 07:42:09;;;;;;;16.08;6.22;;;19.50;40.20;;;;;;8365205;28;20147;-56
2024/02/21 07:46:09;;;;;;;12.90;6.07;;;19.40;40.40;;;;;;8365267;28;20033;-56
2024/02/21 07:50:10;;;;;;;16.60;6.78;;;19.40;39.70;;;;;;8365259;28;20116;-55
2024/02/21 07:54:11;;;;;;;13.40;6.20;;;19.50;39.50;;;;;;8364895;28;20033;-55
2024/02/21 07:58:11;;;;;;;16.98;5.47;;;19.60;39.30;;;;;;8365088;28;20127;-55
2024/02/21 08:02:15;;;;;;;15.52;6.13;;;19.60;39.10;;;;;;8364637;28;20061;-55
2024/02/21 08:06:16;;;;;;;13.57;5.32;;;19.60;39.00;;;;;;8364521;28;20530;-56
2024/02/21 08:10:16;;;;;;;13.75;5.47;;;19.60;38.90;;;;;;8365428;28;20478;-54
2024/02/21 08:14:17;;;;;;;13.38;5.72;;;19.70;38.80;;;;;;8364023;28;20083;-56
2024/02/21 08:18:18;;;;;;;12.25;6.32;;;19.60;38.70;;;;;;8364267;28;20029;-56
2024/02/21 08:22:19;;;;;;;13.73;6.40;;;19.60;38.70;;;;;;8364095;28;20052;-55
2024/02/21 08:26:19;;;;;;;12.30;5.55;;;19.60;39.00;;;;;;8363935;28;20040;-56
2024/02/21 08:30:20;;;;;;;12.80;5.85;;;19.50;40.10;;;;;;8363926;28;20037;-56
2024/02/21 08:34:21;;;;;;;11.73;5.20;;;19.40;40.20;;;;;;8364705;28;20471;-55
2024/02/21 08:38:21;;;;;;;16.00;6.55;;;19.50;39.60;;;;;;8362220;28;20506;-56
2024/02/21 08:42:56;;;;;;;16.92;6.28;;;19.50;39.30;;;;;;8345706;28;20045;-56
2024/02/21 08:47:14;;;;;;;13.18;5.50;;;19.60;39.20;;;;;;8360865;28;20111;-56
2024/02/21 08:51:15;;;;;;;13.45;4.55;;;19.60;39.00;;;;;;8362772;28;20410;-55
2024/02/21 08:55:16;;;;;;;10.90;4.65;;;19.60;39.00;;;;;;8363143;28;20056;-56
2024/02/21 08:59:16;;;;;;;8.93;5.18;;;19.70;38.90;;;;;;8363018;28;20032;-54
2024/02/21 09:03:19;;;;;;;12.68;5.50;;;19.60;38.80;;;;;;8361539;28;20390;-55
2024/02/21 09:07:20;;;;;;;12.95;5.10;;;19.60;38.70;;;;;;8362562;28;20116;-54
2024/02/21 09:11:21;;;;;;;8.82;4.65;;;19.70;38.70;;;;;;8362324;28;20080;-55
2024/02/21 09:15:21;;;;;;;10.13;5.20;;;19.60;39.60;;;;;;8362306;28;20383;-56
2024/02/21 09:19:22;;;;;;;9.45;4.55;;;19.50;40.30;;;;;;8362413;28;20029;-55
2024/02/21 09:23:26;;;;;;;9.80;4.63;;;19.50;40.00;;;;;;8362023;28;20033;-55
2024/02/21 09:27:26;;;;;;;8.95;4.22;;;19.50;39.50;;;;;;8361849;28;20317;-56
2024/02/21 09:31:27;;;;;;;10.73;4.50;;;19.60;39.30;;;;;;8361915;28;20083;-55
2024/02/21 09:35:28;;;;;;;8.32;4.00;;;19.60;39.10;;;;;;8361609;28;20676;-56
2024/02/21 09:39:30;;;;;;;11.63;4.68;;;19.60;38.90;;;;;;8360284;28;20069;-55
2024/02/21 09:43:33;;;;;;;9.73;5.00;;;19.60;38.90;;;;;;8361332;28;20091;-55
2024/02/21 09:48:03;;;;;;;11.75;4.07;;;19.70;38.80;;;;;;8361142;28;20081;-56
2024/02/21 09:52:07;;;;;;;10.68;4.82;;;19.60;38.70;;;;;;8361256;28;20021;-55
2024/02/21 09:56:08;;;;;;;9.90;4.57;;;19.60;38.80;;;;;;8360836;28;20430;-56
2024/02/21 10:00:10;;;;;;;11.02;4.50;;;19.70;38.60;;;;;;8359851;28;20030;-55
2024/02/21 10:04:10;;;;;;;7.65;3.45;;;19.60;39.70;;;;;;8360857;28;20033;-56
2024/02/21 10:08:15;;;;;;;9.27;4.10;;;19.40;40.30;;;;;;8360827;28;20112;-55
2024/02/21 10:12:19;;;;;;;10.80;4.68;;;19.50;39.70;;;;;;8360484;28;20059;-55
2024/02/21 10:16:19;;;;;;;9.05;3.97;;;19.60;39.90;;;;;;8360229;28;20040;-56
2024/02/21 10:20:20;;;;;;;9.77;3.67;;;19.60;39.10;;;;;;8360419;28;20036;-55
2024/02/21 10:24:27;;;;;;;8.77;3.93;;;19.60;39.00;;;;;;8361330;28;20347;-55
2024/02/21 10:28:28;;;;;;;8.02;3.58;;;19.60;39.00;;;;;;8360158;28;20271;-53
2024/02/21 10:32:30;;;;;;;7.97;4.25;;;19.60;38.80;;;;;;8360817;28;20036;-54
2024/02/21 10:36:31;;;;;;;7.78;4.15;;;19.60;38.80;;;;;;8358699;28;20041;-52
2024/02/21 10:40:32;;;;;;;9.13;3.85;;;19.60;38.80;;;;;;8359938;28;20082;-52
2024/02/21 10:44:38;;;;;;;8.95;4.07;;;19.60;38.70;;;;;;8359870;28;20025;-54
2024/02/21 10:48:43;;;;;;;9.05;3.90;;;19.60;38.60;;;;;;8359737;28;20025;-52
2024/02/21 10:52:56;;;;;;;9.43;4.25;;;19.50;39.90;;;;;;8359689;28;20033;-54
2024/02/21 10:56:58;;;;;;;9.70;3.83;;;19.40;40.30;;;;;;8359515;28;20378;-52
2024/02/21 11:00:59;;;;;;;7.15;3.58;;;19.50;39.70;;;;;;8359395;28;20537;-54
2024/02/21 11:05:03;;;;;;;8.85;4.00;;;19.50;39.40;;;;;;8359751;28;20375;-53
2024/02/21 11:09:08;;;;;;;7.93;3.67;;;19.50;39.20;;;;;;8360089;28;20061;-54
2024/02/21 11:13:09;;;;;;;8.48;4.05;;;19.60;39.00;;;;;;8365950;28;20535;-54
2024/02/21 11:17:18;;;;;;;6.40;3.90;;;19.60;38.90;;;;;;8366117;28;20040;-51
2024/02/21 11:21:19;;;;;;;7.28;3.60;;;19.60;38.80;;;;;;8365682;28;20082;-53
2024/02/21 11:25:23;;;;;;;9.55;4.65;;;19.60;38.70;;;;;;8366086;28;20029;-54
2024/02/21 11:29:25;;;;;;;7.55;3.65;;;19.60;38.60;;;;;;8365614;28;20098;-52
2024/02/21 11:33:26;;;;;;;7.30;3.78;;;19.60;38.60;;;;;;8365675;28;20466;-53
2024/02/21 11:37:28;;;;;;;7.38;3.80;;;19.60;38.80;;;;;;8364351;28;20041;-53
2024/02/21 11:41:29;;;;;;;6.15;3.60;;;19.50;40.00;;;;;;8365375;28;20033;-54
2024/02/21 11:45:32;;;;;;;5.72;3.05;;;19.40;40.20;;;;;;8365279;28;20033;-56
2024/02/21 11:49:43;;;;;;;6.70;4.05;;;19.50;39.60;;;;;;8364118;28;20039;-57
2024/02/21 11:53:44;;;;;;;6.63;3.47;;;19.50;39.30;;;;;;8365059;28;20029;-57
2024/02/21 11:57:47;;;;;;;6.45;3.58;;;19.60;39.10;;;;;;8364881;28;20037;-56
2024/02/21 12:01:52;;;;;;;7.93;3.80;;;19.50;39.00;;;;;;8365193;28;20112;-56
2024/02/21 12:05:56;;;;;;;5.55;3.33;;;19.60;38.90;;;;;;8364685;28;20437;-57
2024/02/21 12:10:00;;;;;;;6.20;3.47;;;19.60;38.80;;;;;;8364633;28;20095;-57
2024/02/21 12:14:05;;;;;;;6.25;3.40;;;19.60;38.70;;;;;;8363999;28;20123;-55
2024/02/21 12:18:05;;;;;;;6.30;3.08;;;19.60;38.70;;;;;;8364252;28;20437;-57
2024/02/21 12:22:08;;;;;;;5.55;2.85;;;19.60;38.70;;;;;;8364155;28;20029;-54
2024/02/21 12:26:09;;;;;;;4.90;2.80;;;19.50;39.40;;;;;;8363865;28;20036;-55
2024/02/21 12:30:10;;;;;;;7.38;3.20;;;19.40;40.20;;;;;;8363896;28;20036;-56
2024/02/21 12:34:11;;;;;;;6.55;2.80;;;19.30;40.10;;;;;;8363814;28;20116;-56
2024/02/21 12:38:13;;;;;;;8.07;3.38;;;19.40;39.60;;;;;;8363442;28;20025;-54
2024/02/21 12:42:14;;;;;;;6.88;2.65;;;19.50;39.30;;;;;;8363442;28;20068;-55
2024/02/21 12:46:14;;;;;;;6.22;2.80;;;19.50;39.10;;;;;;8363722;28;20033;-56
2024/02/21 12:50:15;;;;;;;5.13;2.55;;;19.50;38.90;;;;;;8363356;28;20043;-56
2024/02/21 12:54:16;;;;;;;7.63;3.42;;;19.50;38.80;;;;;;8363013;28;20029;-57
2024/02/21 12:58:17;;;;;;;4.03;2.47;;;19.60;38.80;;;;;;8363046;28;20498;-55
2024/02/21 13:02:18;;;;;;;5.93;3.00;;;19.60;38.70;;;;;;8362906;28;20029;-54
2024/02/21 13:06:18;;;;;;;5.90;2.97;;;19.60;38.60;;;;;;8362769;28;20076;-55
2024/02/21 13:10:19;;;;;;;6.75;3.20;;;19.60;38.60;;;;;;8362808;28;20029;-55
2024/02/21 13:14:21;;;;;;;5.72;2.58;;;19.50;39.40;;;;;;8362750;28;20071;-56
2024/02/21 13:18:21;;;;;;;5.40;2.55;;;19.40;40.20;;;;;;8362446;28;20037;-56
2024/02/21 13:22:25;;;;;;;5.03;3.17;;;19.40;39.90;;;;;;8362228;28;20033;-56
2024/02/21 13:26:26;;;;;;;5.72;3.13;;;19.50;39.50;;;;;;8362084;28;20044;-57
2024/02/21 13:30:27;;;;;;;4.75;2.53;;;19.50;39.20;;;;;;8362162;28;20037;-56
2024/02/21 13:34:27;;;;;;;6.03;2.95;;;19.50;39.00;;;;;;8361522;28;20037;-56
2024/02/21 13:38:28;;;;;;;5.97;3.03;;;19.60;38.90;;;;;;8361869;28;20025;-57
2024/02/21 13:42:29;;;;;;;5.68;2.15;;;19.60;38.80;;;;;;8361452;28;20430;-56
2024/02/21 13:46:30;;;;;;;;;;;19.60;38.70;;;;;;8360717;28;20037;-57
2024/02/21 13:50:31;;;;;;;5.50;2.53;;;19.60;38.60;;;;;;8361423;28;19916;-57
2024/02/21 13:54:32;;;;;;;3.67;1.95;;;19.60;38.60;;;;;;8361127;28;20040;-56
2024/02/21 13:58:33;;;;;;;4.85;2.30;;;19.60;38.50;;;;;;8361128;28;20083;-56
2024/02/21 14:02:33;;;;;;;4.27;2.70;;;19.50;39.50;;;;;;8361103;28;20032;-56
2024/02/21 14:06:35;;;;;;;4.80;2.50;;;19.40;40.10;;;;;;8359626;28;20768;-56
2024/02/21 14:10:37;;;;;;;;;;;19.40;39.80;;;;;;8361200;28;20302;-56
2024/02/21 14:14:37;;;;;;;4.55;2.47;;;19.40;39.50;;;;;;8360368;28;19948;-55
2024/02/21 14:18:40;;;;;;;5.70;2.70;;;19.50;39.30;;;;;;8360595;28;20056;-55
2024/02/21 14:22:41;;;;;;;5.13;2.45;;;19.50;39.00;;;;;;8360580;28;20111;-56
2024/02/21 14:26:42;;;;;;;4.47;2.13;;;19.50;39.00;;;;;;8360126;28;20083;-55
2024/02/21 14:30:43;;;;;;;4.45;2.30;;;19.50;38.80;;;;;;8360254;28;20025;-55
2024/02/21 14:34:43;;;;;;;5.88;3.42;;;19.50;38.70;;;;;;8360164;28;20032;-55
2024/02/21 14:38:44;;;;;;;3.22;2.00;;;19.60;38.70;;;;;;8360076;28;20040;-54
2024/02/21 14:42:45;;;;;;;4.93;2.13;;;19.60;38.60;;;;;;8359796;28;20100;-56
2024/02/21 14:46:46;;;;;;;4.05;2.38;;;19.60;38.60;;;;;;8358973;28;20513;-56
2024/02/21 14:50:47;;;;;;;3.30;2.03;;;19.50;39.60;;;;;;8359882;28;20398;-55
2024/02/21 14:54:51;;;;;;;;;;;19.40;40.20;;;;;;8360227;28;20037;-55
2024/02/21 14:58:52;;;;;;;3.67;2.30;;;19.40;39.70;;;;;;8360104;28;20433;-54
2024/02/21 15:02:52;;;;;;;3.28;1.90;;;19.40;39.40;;;;;;8359753;28;20433;-55
2024/02/21 15:06:54;;;;;;;2.78;1.88;;;19.40;39.10;;;;;;8359692;28;20067;-55
2024/02/21 15:10:55;;;;;;;4.40;2.30;;;19.50;39.00;;;;;;8359408;28;20514;-56
2024/02/21 15:14:55;;;;;;;4.35;2.42;;;19.50;38.90;;;;;;8359546;28;20043;-56
2024/02/21 15:18:56;;;;;;;2.95;1.90;;;19.50;38.70;;;;;;8359552;28;20043;-55
2024/02/21 15:22:57;;;;;;;4.30;2.55;;;19.60;38.70;;;;;;8359349;28;20029;-56
2024/02/21 15:26:58;;;;;;;3.30;1.98;;;19.60;38.60;;;;;;8357789;28;20526;-55
2024/02/21 15:30:58;;;;;;;3.70;2.10;;;19.60;38.50;;;;;;8359197;28;20478;-57
2024/02/21 15:34:59;;;;;;;4.22;2.20;;;19.60;38.50;;;;;;8359129;28;20120;-56
2024/02/21 15:39:01;;;;;;;3.63;2.08;;;19.50;39.60;;;;;;8359029;28;20025;-54
2024/02/21 15:43:03;;;;;;;4.07;2.08;;;19.40;40.20;;;;;;8358704;28;20021;-56
2024/02/21 15:47:04;;;;;;;;;;;19.40;39.60;;;;;;8359195;28;20475;-56
2024/02/21 15:51:05;;;;;;;3.53;1.83;;;19.40;39.30;;;;;;8358933;28;20324;-56
2024/02/21 15:55:11;;;;;;;3.97;2.15;;;19.40;39.10;;;;;;8359232;28;20032;-55
2024/02/21 15:59:12;;;;;;;3.55;1.83;;;19.50;39.00;;;;;;8363529;28;20033;-56
2024/02/21 16:03:13;;;;;;;4.28;2.10;;;19.50;38.90;;;;;;8364526;28;20095;-57
2024/02/21 16:07:14;;;;;;;4.38;2.38;;;19.50;38.70;;;;;;8364254;28;20037;-57
2024/02/21 16:11:17;;;;;;;3.28;1.75;;;19.60;38.70;;;;;;8364095;28;20053;-56
2024/02/21 16:15:18;;;;;;;3.78;2.30;;;19.60;38.60;;;;;;8364299;28;20041;-57
2024/02/21 16:19:19;;;;;;;3.40;1.95;;;19.60;38.50;;;;;;8364151;28;20082;-56
2024/02/21 16:23:20;;;;;;;2.63;1.50;;;19.60;38.50;;;;;;8364565;28;20032;-57
2024/02/21 16:27:20;;;;;;;3.50;2.08;;;19.50;39.70;;;;;;8363894;28;20029;-56
2024/02/21 16:31:21;;;;;;;4.30;2.00;;;19.40;40.30;;;;;;8363734;28;20033;-55
2024/02/21 16:35:22;;;;;;;2.78;1.85;;;19.30;40.40;;;;;;8363792;28;20394;-54
2024/02/21 16:39:23;;;;;;;3.45;2.13;;;19.30;40.30;;;;;;8364103;28;20025;-55
2024/02/21 16:43:23;;;;;;;3.20;1.58;;;19.30;40.30;;;;;;8363232;28;20468;-57
2024/02/21 16:47:24;;;;;;;2.55;1.65;;;19.30;40.30;;;;;;8363543;28;20055;-57
2024/02/21 16:51:25;;;;;;;2.42;1.85;;;19.30;40.30;;;;;;8362999;28;20036;-56
2024/02/21 16:55:26;;;;;;;2.72;1.60;;;19.30;40.30;;;;;;8362893;28;20048;-57
2024/02/21 16:59:27;;;;;;;2.20;1.63;;;19.30;40.40;;;;;;8362905;28;20041;-57
2024/02/21 17:03:27;;;;;;;2.90;1.45;;;19.30;40.40;;;;;;8362574;28;20041;-55
2024/02/21 17:07:28;;;;;;;3.40;1.85;;;19.30;40.50;;;;;;8361873;28;20021;-56
2024/02/21 17:11:29;;;;;;;2.28;1.52;;;19.30;40.50;;;;;;8361246;28;20061;-54
2024/02/21 17:15:30;;;;;;;3.38;2.00;;;19.30;40.60;;;;;;8362113;28;20037;-55
2024/02/21 17:19:31;;;;;;;2.17;1.55;;;19.30;40.60;;;;;;8360986;28;20498;-56
2024/02/21 17:23:32;;;;;;;3.22;1.88;;;19.20;40.60;;;;;;8362067;28;20037;-56
2024/02/21 17:27:32;;;;;;;2.20;1.50;;;19.30;40.60;;;;;;8360642;28;20041;-56
2024/02/21 17:31:33;;;;;;;2.03;1.38;;;19.30;40.60;;;;;;8361946;28;20082;-55
2024/02/21 17:35:34;;;;;;;3.33;1.95;;;19.30;40.60;;;;;;8361940;28;20033;-55
2024/02/21 17:39:35;;;;;;;1.98;1.17;;;19.30;40.60;;;;;;8360435;28;20078;-56
2024/02/21 17:43:36;;;;;;;3.35;1.70;;;19.30;40.60;;;;;;8361496;28;20033;-55
2024/02/21 17:47:37;;;;;;;3.25;2.03;;;19.30;40.60;;;;;;8361580;28;20041;-55
2024/02/21 17:51:37;;;;;;;2.30;1.80;;;19.30;40.70;;;;;;8361344;28;20037;-56
2024/02/21 17:55:38;;;;;;;1.95;1.40;;;19.30;40.70;;;;;;8361134;28;20139;-55
2024/02/21 17:59:44;;;;;;;2.00;1.23;;;19.30;40.70;;;;;;8328604;28;20064;-55
2024/02/21 18:03:45;;;;;;;4.45;2.10;;;19.30;40.80;;;;;;8327961;28;20033;-55
2024/02/21 18:07:46;;;;;;;2.45;1.40;;;19.30;40.80;;;;;;8328020;28;20033;-55
2024/02/21 18:11:47;;;;;;;2.35;1.40;;;19.30;40.90;;;;;;8327517;28;20065;-55
2024/02/21 18:15:48;;;;;;;3.45;1.45;;;19.30;40.90;;;;;;8327704;28;20045;-55
2024/02/21 18:19:48;;;;;;;3.72;2.08;;;19.30;40.90;;;;;;8326473;28;20072;-54
2024/02/21 18:23:49;;;;;;;2.33;1.50;;;19.30;41.00;;;;;;8327546;28;20479;-56
2024/02/21 18:27:51;;;;;;;2.22;1.55;;;19.30;40.80;;;;;;8345186;28;20032;-55
2024/02/21 18:31:52;;;;;;;2.70;1.35;;;19.30;40.90;;;;;;8360400;28;20033;-55
2024/02/21 18:35:53;;;;;;;2.28;1.40;;;19.30;40.90;;;;;;8360052;28;20047;-56
2024/02/21 18:39:54;;;;;;;2.40;1.67;;;19.30;40.90;;;;;;8360201;28;20479;-56
2024/02/21 18:43:55;;;;;;;2.45;1.40;;;19.30;40.90;;;;;;8359937;28;20041;-56
2024/02/21 18:47:55;;;;;;;2.55;1.42;;;19.30;40.90;;;;;;8359927;28;20033;-55
2024/02/21 18:51:56;;;;;;;3.70;1.60;;;19.30;40.90;;;;;;8359755;28;20068;-56
2024/02/21 18:55:57;;;;;;;1.73;1.00;;;19.30;40.90;;;;;;8359633;28;20127;-55
2024/02/21 18:59:57;;;;;;;3.40;1.55;;;19.20;41.50;;;;;;8359794;28;20502;-55
2024/02/21 19:03:58;;;;;;;1.70;1.40;;;19.20;41.00;;;;;;8339753;28;20041;-56
2024/02/21 19:07:59;;;;;;;2.67;1.40;;;19.20;41.00;;;;;;8326573;28;20034;-55
2024/02/21 19:12:00;;;;;;;3.05;1.75;;;19.20;41.00;;;;;;8326603;28;20107;-55
2024/02/21 19:16:01;;;;;;;2.53;1.50;;;19.20;41.10;;;;;;8326359;28;20129;-53
2024/02/21 19:20:01;;;;;;;2.72;1.58;;;19.20;41.00;;;;;;8326529;28;20021;-53
2024/02/21 19:24:02;;;;;;;2.63;1.65;;;19.30;41.10;;;;;;8326473;28;20040;-56
2024/02/21 19:28:03;;;;;;;2.20;1.27;;;19.30;41.00;;;;;;8346078;28;20445;-55
2024/02/21 19:32:04;;;;;;;3.10;1.60;;;19.30;41.00;;;;;;8362999;28;20368;-56
2024/02/21 19:36:05;;;;;;;2.83;1.52;;;19.30;41.00;;;;;;8365518;28;20041;-56
2024/02/21 19:40:07;;;;;;;1.80;1.20;;;19.30;40.90;;;;;;8365737;28;20112;-56
2024/02/21 19:44:08;;;;;;;1.88;1.20;;;19.30;40.90;;;;;;8365684;28;20037;-56
2024/02/21 19:48:09;;;;;;;2.47;1.15;;;19.30;41.00;;;;;;8365245;28;20094;-56
2024/02/21 19:52:10;;;;;;;2.97;1.35;;;19.30;41.00;;;;;;8365401;28;20060;-53
2024/02/21 19:56:14;;;;;;;2.67;1.45;;;19.30;41.10;;;;;;8365115;28;20025;-54
2024/02/21 20:00:15;;;;;;;2.00;1.10;;;19.30;41.10;;;;;;8364927;28;20542;-52
2024/02/21 20:04:16;;;;;;;1.77;1.27;;;19.20;41.10;;;;;;8364891;28;20403;-54
2024/02/21 20:08:17;;;;;;;2.00;1.50;;;19.20;41.10;;;;;;8364492;28;20033;-54
2024/02/21 20:12:18;;;;;;;2.28;1.35;;;19.30;41.20;;;;;;8364536;28;20052;-54
2024/02/21 20:16:19;;;;;;;3.13;1.48;;;19.30;41.20;;;;;;8364459;28;20044;-53
2024/02/21 20:20:21;;;;;;;1.90;1.17;;;19.30;41.10;;;;;;8364349;28;20475;-53
2024/02/21 20:24:23;;;;;;;2.88;1.50;;;19.30;41.10;;;;;;8363952;28;20402;-54
2024/02/21 20:28:24;;;;;;;;;;;19.30;41.10;;;;;;8364477;28;20460;-53
2024/02/21 20:32:24;;;;;;;2.13;1.25;;;19.20;41.10;;;;;;8363936;28;19980;-53
2024/02/21 20:36:25;;;;;;;2.25;1.27;;;19.30;41.20;;;;;;8363609;28;20602;-54
2024/02/21 20:40:26;;;;;;;1.65;1.15;;;19.30;41.20;;;;;;8363610;28;20079;-54
2024/02/21 20:44:27;;;;;;;3.22;1.40;;;19.20;41.20;;;;;;8363435;28;20037;-54
2024/02/21 20:48:30;;;;;;;1.95;0.90;;;19.30;41.30;;;;;;8363468;28;20044;-53
2024/02/21 20:52:30;;;;;;;2.08;1.00;;;19.20;41.20;;;;;;8363176;28;20367;-54